createdAt,value
2019-03-15T00:01:02.347Z,29.00
2019-03-15T00:03:40.043Z,29.30
2019-03-15T00:06:18.779Z,29.10
2019-03-15T00:08:57.366Z,29.10
2019-03-15T00:11:36.599Z,29.40
2019-03-15T00:14:15.196Z,29.60
2019-03-15T00:16:53.978Z,29.80
2019-03-15T00:19:31.352Z,29.60
2019-03-15T00:22:13.921Z,29.60
2019-03-15T00:24:53.414Z,29.70
2019-03-15T00:27:32.865Z,29.80
2019-03-15T00:30:14.832Z,29.90
2019-03-15T00:32:53.159Z,29.80
2019-03-15T00:35:30.653Z,29.70
2019-03-15T00:38:12.011Z,29.90
2019-03-15T00:40:51.276Z,29.90
2019-03-15T00:46:31.929Z,29.70
2019-03-15T00:49:09.721Z,29.70
2019-03-15T00:51:50.552Z,29.90
2019-03-15T00:54:32.682Z,29.90
2019-03-15T00:57:13.089Z,29.90
2019-03-15T00:59:52.976Z,29.60
2019-03-15T01:02:33.688Z,29.60
2019-03-15T01:05:13.593Z,29.70
2019-03-15T01:07:51.244Z,29.90
2019-03-15T01:10:30.393Z,30.10
2019-03-15T01:13:11.832Z,30.40
2019-03-15T01:15:52.543Z,30.70
2019-03-15T01:18:30.384Z,31.20
2019-03-15T01:21:12.362Z,31.30
2019-03-15T01:23:50.433Z,31.30
2019-03-15T01:26:30.030Z,31.20
2019-03-15T01:29:09.357Z,31.30
2019-03-15T01:31:51.145Z,31.40
2019-03-15T01:34:28.718Z,32.00
2019-03-15T01:37:08.738Z,31.90
2019-03-15T01:39:46.491Z,32.30
2019-03-15T01:42:26.954Z,32.40
2019-03-15T01:45:04.857Z,32.70
2019-03-15T01:47:42.904Z,32.70
2019-03-15T01:50:21.161Z,32.80
2019-03-15T01:52:59.459Z,32.80
2019-03-15T01:55:37.979Z,32.60
2019-03-15T01:58:17.600Z,32.70
2019-03-15T02:00:56.891Z,32.30
2019-03-15T02:03:55.736Z,32.40
2019-03-15T02:06:35.018Z,32.20
2019-03-15T02:09:14.258Z,32.50
2019-03-15T02:11:51.960Z,32.80
2019-03-15T02:14:32.284Z,32.90
2019-03-15T02:17:13.571Z,32.80
2019-03-15T02:19:51.496Z,32.60
2019-03-15T02:22:30.814Z,32.50
2019-03-15T02:25:09.679Z,32.40
2019-03-15T02:27:48.175Z,32.00
2019-03-15T02:30:26.590Z,32.20
2019-03-15T02:33:04.111Z,32.10
2019-03-15T02:35:44.129Z,31.80
2019-03-15T02:38:23.170Z,31.50
2019-03-15T02:41:05.030Z,31.70
2019-03-15T02:43:42.731Z,31.70
2019-03-15T02:46:22.461Z,32.10
2019-03-15T02:49:02.211Z,32.10
2019-03-15T02:51:40.207Z,31.90
2019-03-15T02:54:18.099Z,32.50
2019-03-15T02:56:56.728Z,32.90
2019-03-15T02:59:37.074Z,33.60
2019-03-15T03:02:15.987Z,33.30
2019-03-15T03:04:54.318Z,33.30
2019-03-15T03:07:33.392Z,33.40
2019-03-15T03:10:12.786Z,33.60
2019-03-15T03:12:51.050Z,33.30
2019-03-15T03:15:29.003Z,32.80
2019-03-15T03:18:09.582Z,32.90
2019-03-15T03:20:48.376Z,33.50
2019-03-15T03:23:27.932Z,32.90
2019-03-15T03:26:07.172Z,32.90
2019-03-15T03:28:45.956Z,33.20
2019-03-15T03:31:25.417Z,33.50
2019-03-15T03:34:05.263Z,34.10
2019-03-15T03:36:45.386Z,34.50
2019-03-15T03:39:24.514Z,34.90
2019-03-15T03:42:02.235Z,34.90
2019-03-15T03:44:40.419Z,35.00
2019-03-15T03:47:19.925Z,34.50
2019-03-15T03:49:58.829Z,34.30
2019-03-15T03:52:41.786Z,34.20
2019-03-15T03:55:19.141Z,34.40
2019-03-15T03:57:57.227Z,34.00
2019-03-15T04:00:38.134Z,34.00
2019-03-15T04:03:17.823Z,34.30
2019-03-15T04:05:59.787Z,34.60
2019-03-15T04:08:40.145Z,35.30
2019-03-15T04:11:20.080Z,35.00
2019-03-15T04:14:02.798Z,35.00
2019-03-15T04:16:41.757Z,34.50
2019-03-15T04:19:21.848Z,34.60
2019-03-15T04:22:02.883Z,34.50
2019-03-15T04:24:42.570Z,34.70
2019-03-15T04:27:22.335Z,34.80
2019-03-15T04:30:02.514Z,35.10
2019-03-15T04:32:41.314Z,35.10
2019-03-15T04:35:21.267Z,35.20
2019-03-15T04:38:00.695Z,34.60
2019-03-15T04:40:38.445Z,34.40
2019-03-15T04:43:17.999Z,34.50
2019-03-15T04:46:01.076Z,34.70
2019-03-15T04:48:39.476Z,34.60
2019-03-15T04:51:21.721Z,34.70
2019-03-15T04:54:05.499Z,35.10
2019-03-15T04:56:43.367Z,35.50
2019-03-15T04:59:24.412Z,35.70
2019-03-15T05:02:03.903Z,34.90
2019-03-15T05:04:45.104Z,34.70
2019-03-15T05:07:26.419Z,34.90
2019-03-15T05:10:09.210Z,35.20
2019-03-15T05:12:47.141Z,35.20
2019-03-15T05:15:32.982Z,35.60
2019-03-15T05:18:33.648Z,35.80
2019-03-15T05:25:09.519Z,35.20
2019-03-15T05:35:06.803Z,35.60
2019-03-15T05:37:49.294Z,36.30
2019-03-15T05:40:27.470Z,35.90
2019-03-15T05:43:05.693Z,35.50
2019-03-15T05:45:44.950Z,35.80
2019-03-15T05:48:27.017Z,35.00
2019-03-15T05:51:03.637Z,34.80
2019-03-15T05:53:44.685Z,34.30
2019-03-15T05:56:22.128Z,35.00
2019-03-15T05:59:00.190Z,35.40
2019-03-15T06:01:38.439Z,35.80
2019-03-15T06:04:17.480Z,36.30
2019-03-15T06:07:00.850Z,36.10
2019-03-15T06:09:41.625Z,35.30
2019-03-15T06:12:28.199Z,35.50
2019-03-15T06:15:09.811Z,35.40
2019-03-15T06:17:50.390Z,35.80
2019-03-15T06:20:31.603Z,35.70
2019-03-15T06:23:12.393Z,35.50
2019-03-15T06:25:51.666Z,35.40
2019-03-15T06:28:33.423Z,35.90
2019-03-15T06:31:17.052Z,35.90
2019-03-15T06:33:57.843Z,35.90
2019-03-15T06:36:36.574Z,34.90
2019-03-15T06:39:27.439Z,34.60
2019-03-15T06:42:08.780Z,34.90
2019-03-15T06:44:58.002Z,34.10
2019-03-15T06:47:28.209Z,33.80
2019-03-15T06:50:06.250Z,33.80
2019-03-15T06:52:46.782Z,34.30
2019-03-15T06:55:25.517Z,34.20
2019-03-15T06:58:06.823Z,34.70
2019-03-15T07:00:47.322Z,34.40
2019-03-15T07:03:40.492Z,34.20
2019-03-15T07:06:19.540Z,33.90
2019-03-15T07:08:58.726Z,33.50
2019-03-15T07:11:39.900Z,33.40
2019-03-15T07:14:30.918Z,33.40
2019-03-15T07:17:12.284Z,33.30
2019-03-15T07:19:50.683Z,33.40
2019-03-15T07:22:30.122Z,33.40
2019-03-15T07:25:13.296Z,33.30
2019-03-15T07:27:57.136Z,33.30
2019-03-15T07:31:10.390Z,33.20
2019-03-15T07:33:49.657Z,33.30
2019-03-15T07:37:05.005Z,33.30
2019-03-15T07:39:52.042Z,33.30
2019-03-15T07:42:33.163Z,33.50
2019-03-15T07:45:16.402Z,33.20
2019-03-15T07:48:05.395Z,33.30
2019-03-15T07:50:49.399Z,33.20
2019-03-15T07:53:31.684Z,33.60
2019-03-15T07:56:11.830Z,33.40
2019-03-15T07:59:02.866Z,33.10
2019-03-15T08:01:55.471Z,32.70
2019-03-15T08:04:39.350Z,33.10
2019-03-15T08:07:20.406Z,33.00
2019-03-15T08:10:06.878Z,32.80
2019-03-15T08:12:49.777Z,33.20
2019-03-15T08:15:31.693Z,33.60
2019-03-15T08:18:16.051Z,33.40
2019-03-15T08:20:57.813Z,32.90
2019-03-15T08:23:38.001Z,32.90
2019-03-15T08:26:25.168Z,33.10
2019-03-15T08:29:04.364Z,33.30
2019-03-15T08:31:47.189Z,33.20
2019-03-15T08:34:33.063Z,32.90
2019-03-15T08:37:42.827Z,32.90
2019-03-15T08:40:22.006Z,32.90
2019-03-15T08:43:01.616Z,32.80
2019-03-15T08:45:41.040Z,33.00
2019-03-15T08:48:20.985Z,33.00
2019-03-15T08:51:01.266Z,33.10
2019-03-15T08:53:42.404Z,33.20
2019-03-15T08:56:22.741Z,33.00
2019-03-15T08:59:00.716Z,32.90
2019-03-15T09:01:39.444Z,33.20
2019-03-15T09:04:21.585Z,33.50
2019-03-15T09:07:12.832Z,33.30
2019-03-15T09:09:56.798Z,33.30
2019-03-15T09:12:36.325Z,33.60
2019-03-15T09:15:19.493Z,33.90
2019-03-15T09:18:01.907Z,33.40
2019-03-15T09:20:41.472Z,33.30
2019-03-15T09:23:20.430Z,33.40
2019-03-15T09:26:00.267Z,33.30
2019-03-15T09:28:38.672Z,33.20
2019-03-15T09:31:17.887Z,33.10
2019-03-15T09:33:58.181Z,33.20
2019-03-15T09:36:50.072Z,33.30
2019-03-15T09:39:23.938Z,33.30
2019-03-15T09:42:02.097Z,33.10
2019-03-15T09:44:40.636Z,33.10
2019-03-15T09:47:19.778Z,33.20
2019-03-15T09:50:20.607Z,33.20
2019-03-15T09:52:51.950Z,33.10
2019-03-15T09:55:33.310Z,33.20
2019-03-15T09:58:11.163Z,33.00
2019-03-15T10:00:49.484Z,32.80
2019-03-15T10:03:31.239Z,32.90
2019-03-15T10:06:19.285Z,32.70
2019-03-15T10:08:59.164Z,32.60
2019-03-15T10:11:45.522Z,32.60
2019-03-15T10:14:24.808Z,32.60
2019-03-15T10:17:02.888Z,32.50
2019-03-15T10:19:43.299Z,32.40
2019-03-15T10:23:04.327Z,32.40
2019-03-15T10:25:28.311Z,32.60
2019-03-15T10:28:15.530Z,32.40
2019-03-15T10:30:54.891Z,32.50
2019-03-15T10:33:50.322Z,32.40
2019-03-15T10:36:27.597Z,32.60
2019-03-15T10:39:12.677Z,32.60
2019-03-15T10:41:53.877Z,32.60
2019-03-15T10:44:33.247Z,32.20
2019-03-15T10:47:11.040Z,32.10
2019-03-15T10:49:58.887Z,32.40
2019-03-15T10:52:39.058Z,32.50
2019-03-15T10:55:21.447Z,32.40
2019-03-15T10:57:59.917Z,32.10
2019-03-15T11:00:43.958Z,32.10
2019-03-15T11:03:29.150Z,32.00
2019-03-15T11:06:14.654Z,31.70
2019-03-15T11:08:57.976Z,31.60
2019-03-15T11:11:41.822Z,31.60
2019-03-15T11:14:22.139Z,31.60
2019-03-15T11:17:10.896Z,31.50
2019-03-15T11:19:49.385Z,31.40
2019-03-15T11:22:34.482Z,31.20
2019-03-15T11:25:16.315Z,31.30
2019-03-15T11:27:57.027Z,31.30
2019-03-15T11:30:35.582Z,31.30
2019-03-15T11:33:16.767Z,31.30
2019-03-15T11:35:57.638Z,31.20
2019-03-15T11:38:38.468Z,31.20
2019-03-15T11:41:19.850Z,31.20
2019-03-15T11:44:00.184Z,31.00
2019-03-15T11:46:44.420Z,31.00
2019-03-15T11:49:28.198Z,31.00
2019-03-15T11:52:08.475Z,31.10
2019-03-15T11:54:49.792Z,31.20
2019-03-15T11:57:34.177Z,30.90
2019-03-15T12:00:29.472Z,30.80
2019-03-15T12:03:14.671Z,31.00
2019-03-15T12:05:55.078Z,31.10
2019-03-15T12:08:35.502Z,31.00
2019-03-15T12:11:14.680Z,30.70
2019-03-15T12:13:54.187Z,31.00
2019-03-15T12:16:31.663Z,31.00
2019-03-15T12:19:11.003Z,30.90
2019-03-15T12:22:05.377Z,30.60
2019-03-15T12:24:51.910Z,30.60
2019-03-15T12:27:32.627Z,30.70
2019-03-15T12:30:18.144Z,30.60
2019-03-15T12:33:06.182Z,30.60
2019-03-15T12:35:54.537Z,30.60
2019-03-15T12:38:32.865Z,30.60
2019-03-15T12:41:13.574Z,30.70
2019-03-15T12:44:06.076Z,30.60
2019-03-15T12:46:47.130Z,30.70
2019-03-15T12:49:33.072Z,30.50
2019-03-15T12:52:12.702Z,30.50
2019-03-15T12:55:00.999Z,30.40
2019-03-15T12:57:42.527Z,30.50
2019-03-15T13:00:24.170Z,30.60
2019-03-15T13:03:03.292Z,30.30
2019-03-15T13:05:48.068Z,30.20
2019-03-15T13:08:34.351Z,30.40
2019-03-15T13:11:12.857Z,30.60
2019-03-15T13:14:13.934Z,30.50
2019-03-15T13:16:56.617Z,30.20
2019-03-15T13:19:34.031Z,30.40
2019-03-15T13:22:15.349Z,30.50
2019-03-15T13:24:55.399Z,30.50
2019-03-15T13:27:34.669Z,30.10
2019-03-15T13:30:18.374Z,30.30
2019-03-15T13:32:56.800Z,30.50
2019-03-15T13:35:36.061Z,30.50
2019-03-15T13:38:14.978Z,30.40
2019-03-15T13:40:57.438Z,30.50
2019-03-15T13:43:33.754Z,30.60
2019-03-15T13:46:15.962Z,30.60
2019-03-15T13:48:54.621Z,30.80
2019-03-15T13:51:36.009Z,30.50
2019-03-15T13:54:15.709Z,30.40
2019-03-15T13:56:54.348Z,30.30
2019-03-15T13:59:32.177Z,30.20
2019-03-15T14:02:11.335Z,30.20
2019-03-15T14:04:49.153Z,30.40
2019-03-15T14:07:28.981Z,30.40
2019-03-15T14:10:06.917Z,30.30
2019-03-15T14:12:46.585Z,30.40
2019-03-15T14:15:25.188Z,30.50
2019-03-15T14:18:03.327Z,30.50
2019-03-15T14:20:43.016Z,30.30
2019-03-15T14:23:23.840Z,30.20
2019-03-15T14:26:01.824Z,30.50
2019-03-15T14:28:41.370Z,30.80
2019-03-15T14:31:22.666Z,30.60
2019-03-15T14:33:59.942Z,30.20
2019-03-15T14:36:37.997Z,30.40
2019-03-15T14:39:20.385Z,30.40
2019-03-15T14:41:59.512Z,30.50
2019-03-15T14:44:38.129Z,30.30
2019-03-15T14:47:27.348Z,30.20
2019-03-15T14:50:06.455Z,30.40
2019-03-15T14:52:45.613Z,30.40
2019-03-15T14:55:24.282Z,30.30
2019-03-15T14:58:02.592Z,30.30
2019-03-15T15:00:40.574Z,30.20
2019-03-15T15:03:18.553Z,30.30
2019-03-15T15:06:04.683Z,30.40
2019-03-15T15:08:42.554Z,30.30
2019-03-15T15:11:25.626Z,30.30
2019-03-15T15:14:01.648Z,30.40
2019-03-15T15:16:43.174Z,30.30
2019-03-15T15:19:29.932Z,30.40
2019-03-15T15:22:12.706Z,30.40
2019-03-15T15:24:52.877Z,30.30
2019-03-15T15:27:36.482Z,30.20
2019-03-15T15:30:15.458Z,30.40
2019-03-15T15:32:56.194Z,30.50
2019-03-15T15:35:41.478Z,30.30
2019-03-15T15:38:19.006Z,30.10
2019-03-15T15:40:58.995Z,30.20
2019-03-15T15:43:40.186Z,30.40
2019-03-15T15:46:18.662Z,30.50
2019-03-15T15:49:00.710Z,30.20
2019-03-15T15:51:41.588Z,30.10
2019-03-15T15:54:20.906Z,30.20
2019-03-15T15:57:01.623Z,30.40
2019-03-15T15:59:44.697Z,30.10
2019-03-15T16:02:22.889Z,30.00
2019-03-15T16:05:01.215Z,30.20
2019-03-15T16:07:42.504Z,30.40
2019-03-15T16:10:23.710Z,30.40
2019-03-15T16:13:16.612Z,30.20
2019-03-15T16:15:43.424Z,30.30
2019-03-15T16:18:22.424Z,30.40
2019-03-15T16:21:00.787Z,30.10
2019-03-15T16:23:40.895Z,30.40
2019-03-15T16:26:21.794Z,30.30
2019-03-15T16:29:04.684Z,30.20
2019-03-15T16:31:44.986Z,30.10
2019-03-15T16:34:23.463Z,30.20
2019-03-15T16:37:07.987Z,30.40
2019-03-15T16:39:50.799Z,30.30
2019-03-15T16:42:32.049Z,30.10
2019-03-15T16:45:15.156Z,30.30
2019-03-15T16:47:54.127Z,30.40
2019-03-15T16:50:32.775Z,30.40
2019-03-15T16:53:13.029Z,30.30
2019-03-15T16:55:56.961Z,30.20
2019-03-15T16:58:47.470Z,30.40
2019-03-15T17:01:31.531Z,30.60
2019-03-15T17:04:13.712Z,30.30
2019-03-15T17:06:53.191Z,30.30
2019-03-15T17:09:36.696Z,30.20
2019-03-15T17:12:16.836Z,30.20
2019-03-15T17:14:56.080Z,30.30
2019-03-15T17:17:34.060Z,30.10
2019-03-15T17:20:19.018Z,30.00
2019-03-15T17:22:58.437Z,30.20
2019-03-15T17:25:36.297Z,30.30
2019-03-15T17:28:17.276Z,30.20
2019-03-15T17:31:09.902Z,30.00
2019-03-15T17:33:41.951Z,30.00
2019-03-15T17:36:22.680Z,29.90
2019-03-15T17:39:01.731Z,30.00
2019-03-15T17:42:08.109Z,30.10
2019-03-15T17:44:49.408Z,30.10
2019-03-15T17:47:29.820Z,30.00
2019-03-15T17:50:20.507Z,30.00
2019-03-15T17:52:59.761Z,30.10
2019-03-15T17:55:40.751Z,30.10
2019-03-15T17:58:27.098Z,29.90
2019-03-15T18:01:16.874Z,29.70
2019-03-15T18:04:01.175Z,29.90
2019-03-15T18:06:51.868Z,30.00
2019-03-15T18:09:29.267Z,29.90
2019-03-15T18:12:09.192Z,29.80
2019-03-15T18:14:48.947Z,30.00
2019-03-15T18:17:28.163Z,30.10
2019-03-15T18:20:08.808Z,30.20
2019-03-15T18:22:47.454Z,30.10
2019-03-15T18:25:29.964Z,30.00
2019-03-15T18:28:11.631Z,30.00
2019-03-15T18:30:50.779Z,30.00
2019-03-15T18:33:40.772Z,30.00
2019-03-15T18:36:24.568Z,30.00
2019-03-15T18:39:05.350Z,30.00
2019-03-15T18:41:43.171Z,30.20
2019-03-15T18:44:23.271Z,29.80
2019-03-15T18:47:01.708Z,29.70
2019-03-15T18:49:40.136Z,29.80
2019-03-15T18:52:18.853Z,30.00
2019-03-15T18:54:58.337Z,30.00
2019-03-15T18:57:37.871Z,29.90
2019-03-15T19:00:18.655Z,29.60
2019-03-15T19:03:00.802Z,29.70
2019-03-15T19:05:38.757Z,29.80
2019-03-15T19:08:18.071Z,29.80
2019-03-15T19:10:59.033Z,29.70
2019-03-15T19:13:37.343Z,29.80
2019-03-15T19:16:20.343Z,29.90
2019-03-15T19:19:01.094Z,30.20
2019-03-15T19:21:39.429Z,30.00
2019-03-15T19:24:19.531Z,29.90
2019-03-15T19:26:57.909Z,29.90
2019-03-15T19:29:37.004Z,30.10
2019-03-15T19:32:14.559Z,30.00
2019-03-15T19:34:54.187Z,30.10
2019-03-15T19:37:32.114Z,30.10
2019-03-15T19:40:11.439Z,29.90
2019-03-15T19:42:51.721Z,29.70
2019-03-15T19:45:33.114Z,29.70
2019-03-15T19:48:12.676Z,29.70
2019-03-15T19:50:57.176Z,29.70
2019-03-15T19:53:36.794Z,29.80
2019-03-15T19:56:15.467Z,29.70
2019-03-15T19:58:53.835Z,29.60
2019-03-15T20:01:33.059Z,29.70
2019-03-15T20:04:11.696Z,29.90
2019-03-15T20:06:49.945Z,29.80
2019-03-15T20:09:29.237Z,29.70
2019-03-15T20:12:08.223Z,29.60
2019-03-15T20:14:46.550Z,29.50
2019-03-15T20:17:23.898Z,29.50
2019-03-15T20:20:02.486Z,29.70
2019-03-15T20:22:41.022Z,29.60
2019-03-15T20:25:19.243Z,30.10
2019-03-15T20:27:58.624Z,30.00
2019-03-15T20:30:51.246Z,30.30
2019-03-15T20:33:21.904Z,30.30
2019-03-15T20:35:59.803Z,30.10
2019-03-15T20:38:40.103Z,29.70
2019-03-15T20:41:19.757Z,29.60
2019-03-15T20:44:00.592Z,29.80
2019-03-15T20:46:39.564Z,30.00
2019-03-15T20:49:17.126Z,30.20
2019-03-15T20:51:55.776Z,29.90
2019-03-15T20:54:33.549Z,29.80
2019-03-15T20:57:15.527Z,30.00
2019-03-15T20:59:56.098Z,30.20
2019-03-15T21:02:36.997Z,30.10
2019-03-15T21:05:15.802Z,30.00
2019-03-15T21:07:54.227Z,30.00
2019-03-15T21:10:33.358Z,29.80
2019-03-15T21:13:13.180Z,29.70
2019-03-15T21:15:52.110Z,29.60
2019-03-15T21:18:30.520Z,29.50
2019-03-15T21:21:08.301Z,29.70
2019-03-15T21:23:47.795Z,29.60
2019-03-15T21:26:29.123Z,29.60
2019-03-15T21:29:08.298Z,29.60
2019-03-15T21:31:48.452Z,29.50
2019-03-15T21:34:27.722Z,29.60
2019-03-15T21:37:06.257Z,29.50
2019-03-15T21:39:45.941Z,29.50
2019-03-15T21:42:24.060Z,29.50
2019-03-15T21:45:02.853Z,29.40
2019-03-15T21:47:42.298Z,29.40
2019-03-15T21:50:22.050Z,29.50
2019-03-15T21:53:00.583Z,29.50
2019-03-15T21:55:40.318Z,29.40
2019-03-15T21:58:18.708Z,29.40
2019-03-15T22:01:02.743Z,29.40
2019-03-15T22:03:38.676Z,29.40
2019-03-15T22:06:19.558Z,29.40
2019-03-15T22:08:58.490Z,29.40
2019-03-15T22:11:36.837Z,29.50
2019-03-15T22:14:16.061Z,29.50
2019-03-15T22:16:54.487Z,29.40
2019-03-15T22:19:33.547Z,29.40
2019-03-15T22:22:13.230Z,29.40
2019-03-15T22:24:51.492Z,29.50
2019-03-15T22:27:29.849Z,29.50
2019-03-15T22:30:10.594Z,29.40
2019-03-15T22:32:52.510Z,29.40
2019-03-15T22:35:32.639Z,29.40
2019-03-15T22:38:25.758Z,29.40
2019-03-15T22:40:56.577Z,29.40
2019-03-15T22:43:35.092Z,29.40
2019-03-15T22:46:12.664Z,29.40
2019-03-15T22:48:50.030Z,29.30
2019-03-15T22:51:31.606Z,29.30
2019-03-15T22:54:10.696Z,29.30
2019-03-15T22:56:48.540Z,29.30
2019-03-15T22:59:25.935Z,29.30
2019-03-15T23:02:06.683Z,29.20
2019-03-15T23:04:44.530Z,29.10
2019-03-15T23:07:23.578Z,29.00
2019-03-15T23:10:02.291Z,28.90
2019-03-15T23:12:41.722Z,28.80
2019-03-15T23:15:22.162Z,28.40
